Time;durP1;ratioP1;P1;durP2;ratioP2;P2;SDS_P1;SDS_P2;PMS_P1;PMS_P2;Temp;Humidity;BMP_temperature;BMP_pressure;BME280_temperature;BME280_humidity;BME280_pressure;Samples;Min_cycle;Max_cycle;Signal;HPM_P1;HPM_P2
2023/05/19 00:01:02;;;;;;;8.50;3.63;;;;;;;;;;6044366;23;20208;-63
2023/05/19 00:03:32;;;;;;;5.35;2.78;;;;;;;;;;6041959;23;20252;-63
2023/05/19 00:06:02;;;;;;;3.67;3.15;;;;;;;;;;6044782;23;20505;-62
2023/05/19 00:08:31;;;;;;;3.33;3.00;;;;;;;;;;6043760;23;20216;-62
2023/05/19 00:10:59;;;;;;;6.55;3.17;;;;;;;;;;6043085;23;20229;-62
2023/05/19 00:13:28;;;;;;;4.15;2.95;;;;;;;;;;6043473;23;20256;-63
2023/05/19 00:15:58;;;;;;;7.07;3.30;;;;;;;;;;6044009;23;20212;-63
2023/05/19 00:18:28;;;;;;;5.10;3.47;;;;;;;;;;6043614;23;20212;-63
2023/05/19 00:20:56;;;;;;;4.43;3.00;;;;;;;;;;6043372;23;20254;-63
2023/05/19 00:23:25;;;;;;;6.82;3.60;;;;;;;;;;6043833;23;20677;-63
2023/05/19 00:25:53;;;;;;;10.95;4.93;;;;;;;;;;6042561;23;20215;-64
2023/05/19 00:28:21;;;;;;;4.80;3.25;;;;;;;;;;6044026;23;20578;-63
2023/05/19 00:30:49;;;;;;;5.78;3.38;;;;;;;;;;6042527;23;20623;-63
2023/05/19 00:33:19;;;;;;;5.07;3.72;;;;;;;;;;6043179;23;20295;-63
2023/05/19 00:35:47;;;;;;;4.25;2.95;;;;;;;;;;6042516;23;20301;-64
2023/05/19 00:38:15;;;;;;;7.72;2.95;;;;;;;;;;6020826;23;20649;-63
2023/05/19 00:40:44;;;;;;;10.10;3.40;;;;;;;;;;6045792;23;20272;-64
2023/05/19 00:43:13;;;;;;;8.07;3.88;;;;;;;;;;6044416;23;20252;-62
2023/05/19 00:45:41;;;;;;;4.30;3.15;;;;;;;;;;6044850;23;20181;-63
2023/05/19 00:48:10;;;;;;;4.43;2.90;;;;;;;;;;6046071;23;20223;-63
2023/05/19 00:50:39;;;;;;;4.95;3.30;;;;;;;;;;6045497;23;20646;-63
2023/05/19 00:53:07;;;;;;;3.20;2.95;;;;;;;;;;6044478;23;20267;-63
2023/05/19 00:55:39;;;;;;;7.10;3.35;;;;;;;;;;6045413;23;20257;-65
2023/05/19 00:58:07;;;;;;;3.40;3.10;;;;;;;;;;6046181;23;20197;-63
2023/05/19 01:00:37;;;;;;;5.63;3.25;;;;;;;;;;6045019;23;20192;-66
2023/05/19 01:03:09;;;;;;;4.53;2.70;;;;;;;;;;6045362;23;20216;-66
2023/05/19 01:05:40;;;;;;;5.90;2.90;;;;;;;;;;6044347;23;20192;-62
2023/05/19 01:08:08;;;;;;;6.70;3.75;;;;;;;;;;6045963;23;20197;-63
2023/05/19 01:10:38;;;;;;;5.35;3.17;;;;;;;;;;6045164;23;20231;-63
2023/05/19 01:13:07;;;;;;;3.80;2.97;;;;;;;;;;6045509;23;20271;-63
2023/05/19 01:15:40;;;;;;;6.55;3.03;;;;;;;;;;6045415;23;20231;-63
2023/05/19 01:18:11;;;;;;;4.03;2.88;;;;;;;;;;6046154;23;20208;-63
2023/05/19 01:20:45;;;;;;;3.88;3.17;;;;;;;;;;6045067;23;20262;-63
2023/05/19 01:23:22;;;;;;;5.32;2.90;;;;;;;;;;6046133;23;20189;-63
2023/05/19 01:26:09;;;;;;;6.32;3.20;;;;;;;;;;6045321;23;20251;-62
2023/05/19 01:28:53;;;;;;;8.75;3.30;;;;;;;;;;6045115;23;20196;-63
2023/05/19 01:31:24;;;;;;;3.75;3.45;;;;;;;;;;6044757;23;20193;-63
2023/05/19 01:33:53;;;;;;;9.82;3.65;;;;;;;;;;6045311;23;20217;-62
2023/05/19 01:36:22;;;;;;;4.30;2.95;;;;;;;;;;6044802;23;20215;-62
2023/05/19 01:38:51;;;;;;;3.30;2.80;;;;;;;;;;6045419;23;20211;-62
2023/05/19 01:41:20;;;;;;;5.18;2.50;;;;;;;;;;6045355;23;20212;-62
2023/05/19 01:43:49;;;;;;;10.27;3.28;;;;;;;;;;6045855;23;20635;-62
2023/05/19 01:46:18;;;;;;;3.70;3.40;;;;;;;;;;6045531;23;20211;-63
2023/05/19 01:48:48;;;;;;;4.50;3.20;;;;;;;;;;6043677;23;20208;-64
2023/05/19 01:51:16;;;;;;;4.38;3.20;;;;;;;;;;6045333;23;20664;-62
2023/05/19 01:53:44;;;;;;;7.63;3.55;;;;;;;;;;6045406;23;20216;-63
2023/05/19 01:56:17;;;;;;;6.10;3.03;;;;;;;;;;6045306;23;20211;-62
2023/05/19 01:58:46;;;;;;;6.40;2.72;;;;;;;;;;6045556;23;20188;-62
2023/05/19 02:01:20;;;;;;;3.15;2.83;;;;;;;;;;6044448;23;20224;-63
2023/05/19 02:03:54;;;;;;;4.80;3.45;;;;;;;;;;6044013;23;20235;-63
2023/05/19 02:06:31;;;;;;;3.10;2.83;;;;;;;;;;6044966;23;20220;-63
2023/05/19 02:09:03;;;;;;;5.78;3.10;;;;;;;;;;6043788;23;20622;-62
2023/05/19 02:11:37;;;;;;;6.63;3.20;;;;;;;;;;6044155;23;20196;-63
2023/05/19 02:14:09;;;;;;;6.35;3.13;;;;;;;;;;6044933;23;20225;-66
2023/05/19 02:16:38;;;;;;;9.25;3.45;;;;;;;;;;6044604;23;20236;-63
2023/05/19 02:19:20;;;;;;;10.63;3.15;;;;;;;;;;6045115;23;20216;-64
2023/05/19 02:21:49;;;;;;;4.45;2.80;;;;;;;;;;6042784;23;20204;-63
2023/05/19 02:24:17;;;;;;;10.25;3.83;;;;;;;;;;6045290;23;20200;-64
2023/05/19 02:26:45;;;;;;;3.92;2.63;;;;;;;;;;6045807;23;20216;-62
2023/05/19 02:29:13;;;;;;;5.43;2.42;;;;;;;;;;6045845;23;20204;-61
2023/05/19 02:31:41;;;;;;;5.25;3.50;;;;;;;;;;6043544;23;20204;-62
2023/05/19 02:34:11;;;;;;;4.00;3.05;;;;;;;;;;6045126;23;20272;-62
2023/05/19 02:36:41;;;;;;;4.22;2.38;;;;;;;;;;6044454;23;20260;-63
2023/05/19 02:39:10;;;;;;;8.65;3.13;;;;;;;;;;6043923;23;20254;-62
2023/05/19 02:41:39;;;;;;;8.45;3.20;;;;;;;;;;6043037;23;20255;-63
2023/05/19 02:44:07;;;;;;;4.70;2.70;;;;;;;;;;6043970;23;20204;-63
2023/05/19 02:46:35;;;;;;;2.88;2.67;;;;;;;;;;6019304;23;20289;-65
2023/05/19 02:49:04;;;;;;;2.85;2.55;;;;;;;;;;6044784;23;20204;-62
2023/05/19 02:51:33;;;;;;;6.10;2.83;;;;;;;;;;6045179;23;20217;-63
2023/05/19 02:54:02;;;;;;;5.45;2.97;;;;;;;;;;6044052;23;20577;-62
2023/05/19 02:56:30;;;;;;;5.30;3.17;;;;;;;;;;6043433;23;20208;-63
2023/05/19 02:58:58;;;;;;;6.03;2.85;;;;;;;;;;6044277;23;20208;-62
2023/05/19 03:01:26;;;;;;;2.53;2.33;;;;;;;;;;6043900;23;20212;-63
2023/05/19 03:03:54;;;;;;;6.53;2.85;;;;;;;;;;6044206;23;20200;-62
2023/05/19 03:06:23;;;;;;;5.20;3.58;;;;;;;;;;6044306;23;20677;-62
2023/05/19 03:08:52;;;;;;;6.15;2.95;;;;;;;;;;6020091;23;20215;-62
2023/05/19 03:11:22;;;;;;;2.88;2.53;;;;;;;;;;6043831;23;20252;-63
2023/05/19 03:13:50;;;;;;;9.55;4.05;;;;;;;;;;6044583;23;20276;-63
2023/05/19 03:16:18;;;;;;;3.60;2.70;;;;;;;;;;6044417;23;20571;-63
2023/05/19 03:18:46;;;;;;;3.30;2.25;;;;;;;;;;6044950;23;20227;-62
2023/05/19 03:21:15;;;;;;;4.60;2.90;;;;;;;;;;6046833;23;20224;-62
2023/05/19 03:23:43;;;;;;;4.10;2.38;;;;;;;;;;6051107;23;20200;-63
2023/05/19 03:26:12;;;;;;;6.03;3.13;;;;;;;;;;6050874;23;20208;-61
2023/05/19 03:28:41;;;;;;;3.55;2.60;;;;;;;;;;6049242;23;20212;-62
2023/05/19 03:31:09;;;;;;;11.23;2.90;;;;;;;;;;6050165;23;20212;-62
2023/05/19 03:33:40;;;;;;;8.40;3.05;;;;;;;;;;6050473;23;20298;-63
2023/05/19 03:36:08;;;;;;;2.65;2.40;;;;;;;;;;6052511;23;20537;-62
2023/05/19 03:38:39;;;;;;;2.53;2.33;;;;;;;;;;6050769;23;20189;-63
2023/05/19 03:41:08;;;;;;;4.05;3.20;;;;;;;;;;6052084;23;20236;-63
2023/05/19 03:43:37;;;;;;;7.57;3.10;;;;;;;;;;6049511;23;20213;-65
2023/05/19 03:46:08;;;;;;;3.20;2.85;;;;;;;;;;6049788;23;20200;-63
2023/05/19 03:48:59;;;;;;;3.08;2.88;;;;;;;;;;6047207;23;20267;-62
2023/05/19 03:51:28;;;;;;;8.25;3.15;;;;;;;;;;6052239;23;20185;-62
2023/05/19 03:54:03;;;;;;;6.55;3.90;;;;;;;;;;6050857;23;20219;-63
2023/05/19 03:56:31;;;;;;;7.85;3.15;;;;;;;;;;6027077;23;20204;-62
2023/05/19 03:59:04;;;;;;;6.15;3.35;;;;;;;;;;6051793;23;20211;-62
2023/05/19 04:01:33;;;;;;;3.42;2.92;;;;;;;;;;6050300;23;20221;-63
2023/05/19 04:04:01;;;;;;;11.00;3.15;;;;;;;;;;6050229;23;20200;-62
2023/05/19 04:06:30;;;;;;;5.18;2.72;;;;;;;;;;6050377;23;20256;-63
2023/05/19 04:08:58;;;;;;;2.90;2.70;;;;;;;;;;6052424;23;20204;-61
2023/05/19 04:11:27;;;;;;;5.10;2.65;;;;;;;;;;6050661;23;20219;-63
2023/05/19 04:13:55;;;;;;;5.60;3.33;;;;;;;;;;6049362;23;20235;-61
2023/05/19 04:16:25;;;;;;;13.27;3.00;;;;;;;;;;6049488;23;20204;-62
2023/05/19 04:18:53;;;;;;;3.58;2.88;;;;;;;;;;6050674;23;20272;-64
2023/05/19 04:21:21;;;;;;;4.68;2.70;;;;;;;;;;6050322;23;20264;-64
2023/05/19 04:23:50;;;;;;;3.85;3.13;;;;;;;;;;6051329;23;20204;-62
2023/05/19 04:26:20;;;;;;;10.32;3.30;;;;;;;;;;6050843;23;20200;-62
2023/05/19 04:28:49;;;;;;;11.50;2.83;;;;;;;;;;6050170;23;20188;-62
2023/05/19 04:31:17;;;;;;;4.45;3.40;;;;;;;;;;6052546;23;20204;-62
2023/05/19 04:33:48;;;;;;;5.25;3.20;;;;;;;;;;6049922;23;20712;-66
2023/05/19 04:36:20;;;;;;;6.38;2.35;;;;;;;;;;6026635;23;20169;-63
2023/05/19 04:38:53;;;;;;;3.55;2.75;;;;;;;;;;6051151;23;20208;-65
2023/05/19 04:41:21;;;;;;;3.72;2.60;;;;;;;;;;6049560;23;20252;-62
2023/05/19 04:43:50;;;;;;;4.72;2.83;;;;;;;;;;6051319;23;20207;-62
2023/05/19 04:46:22;;;;;;;5.45;2.75;;;;;;;;;;6050538;23;20204;-63
2023/05/19 04:48:54;;;;;;;9.13;3.20;;;;;;;;;;6050302;23;20165;-64
2023/05/19 04:51:27;;;;;;;4.00;2.83;;;;;;;;;;6049588;23;20188;-63
2023/05/19 04:53:56;;;;;;;8.27;3.38;;;;;;;;;;6052021;23;20221;-63
2023/05/19 04:56:26;;;;;;;6.10;3.10;;;;;;;;;;6050253;23;20211;-62
2023/05/19 04:58:55;;;;;;;8.82;3.08;;;;;;;;;;6051053;23;20221;-63
2023/05/19 05:01:24;;;;;;;8.88;3.70;;;;;;;;;;6049128;23;20215;-64
2023/05/19 05:03:57;;;;;;;5.05;2.72;;;;;;;;;;6049481;23;20184;-63
2023/05/19 05:06:27;;;;;;;10.20;3.20;;;;;;;;;;6049343;23;20200;-65
2023/05/19 05:08:56;;;;;;;21.80;4.00;;;;;;;;;;6050753;23;20208;-62
2023/05/19 05:11:24;;;;;;;9.27;2.60;;;;;;;;;;6049253;23;20209;-63
2023/05/19 05:13:56;;;;;;;6.05;2.60;;;;;;;;;;6049103;23;20223;-64
2023/05/19 05:16:27;;;;;;;3.75;2.80;;;;;;;;;;6050194;23;20192;-63
2023/05/19 05:18:57;;;;;;;6.63;2.72;;;;;;;;;;6049645;23;20181;-63
2023/05/19 05:21:26;;;;;;;6.45;3.08;;;;;;;;;;6048327;23;20235;-63
2023/05/19 05:23:54;;;;;;;3.70;2.65;;;;;;;;;;6048809;23;20212;-63
2023/05/19 05:26:29;;;;;;;6.63;3.78;;;;;;;;;;6048403;23;20201;-64
2023/05/19 05:28:57;;;;;;;5.38;3.20;;;;;;;;;;6048935;23;20189;-62
2023/05/19 05:31:26;;;;;;;8.93;3.60;;;;;;;;;;6049105;23;20569;-64
2023/05/19 05:33:54;;;;;;;3.60;2.55;;;;;;;;;;6025537;23;20180;-63
2023/05/19 05:36:28;;;;;;;5.80;2.95;;;;;;;;;;6048015;23;20239;-63
2023/05/19 05:38:56;;;;;;;9.48;3.30;;;;;;;;;;6050437;23;20219;-64
2023/05/19 05:41:26;;;;;;;8.27;2.40;;;;;;;;;;6050559;23;20227;-62
2023/05/19 05:43:54;;;;;;;10.40;3.22;;;;;;;;;;6050818;23;20204;-63
2023/05/19 05:46:23;;;;;;;4.88;3.00;;;;;;;;;;6051309;23;20204;-63
2023/05/19 05:48:51;;;;;;;3.15;2.58;;;;;;;;;;6050362;23;20217;-65
2023/05/19 05:51:21;;;;;;;5.70;3.20;;;;;;;;;;6048049;23;20204;-65
2023/05/19 05:53:52;;;;;;;7.00;2.70;;;;;;;;;;6050489;23;20196;-66
2023/05/19 05:56:21;;;;;;;2.88;2.60;;;;;;;;;;6055851;23;20165;-66
2023/05/19 05:58:53;;;;;;;4.82;2.83;;;;;;;;;;6055558;23;20177;-66
2023/05/19 06:01:22;;;;;;;4.13;2.40;;;;;;;;;;6055202;23;20240;-66
2023/05/19 06:03:51;;;;;;;4.70;2.90;;;;;;;;;;6054536;23;20187;-66
2023/05/19 06:06:22;;;;;;;3.67;3.38;;;;;;;;;;6055384;23;20165;-66
2023/05/19 06:08:52;;;;;;;10.48;5.18;;;;;;;;;;6054026;23;20201;-65
2023/05/19 06:11:21;;;;;;;5.60;3.40;;;;;;;;;;6055973;23;20435;-66
2023/05/19 06:13:50;;;;;;;3.33;3.00;;;;;;;;;;6050014;23;20204;-67
2023/05/19 06:16:35;;;;;;;6.00;2.97;;;;;;;;;;6042985;23;20214;-66
2023/05/19 06:19:04;;;;;;;5.18;2.95;;;;;;;;;;6042995;23;20259;-66
2023/05/19 06:21:32;;;;;;;3.45;3.05;;;;;;;;;;6043011;23;20550;-66
2023/05/19 06:24:02;;;;;;;7.57;3.45;;;;;;;;;;6041018;23;20256;-66
2023/05/19 06:26:30;;;;;;;5.80;3.28;;;;;;;;;;6039560;23;20260;-67
2023/05/19 06:28:58;;;;;;;7.03;2.50;;;;;;;;;;6039412;23;20255;-66
2023/05/19 06:31:27;;;;;;;8.25;3.25;;;;;;;;;;6042791;23;20224;-66
2023/05/19 06:33:59;;;;;;;10.18;3.25;;;;;;;;;;6041868;23;20240;-66
2023/05/19 06:36:27;;;;;;;7.27;3.23;;;;;;;;;;6042309;23;20299;-66
2023/05/19 06:39:00;;;;;;;10.80;2.97;;;;;;;;;;6041042;23;20611;-67
2023/05/19 06:41:31;;;;;;;3.97;3.60;;;;;;;;;;6038989;23;20615;-66
2023/05/19 06:44:00;;;;;;;8.32;4.78;;;;;;;;;;6040158;23;20263;-66
2023/05/19 06:46:31;;;;;;;3.80;3.03;;;;;;;;;;6041059;23;20192;-64
2023/05/19 06:49:00;;;;;;;7.17;3.07;;;;;;;;;;6042498;23;20655;-65
2023/05/19 06:51:31;;;;;;;5.70;3.30;;;;;;;;;;6040787;23;20575;-65
2023/05/19 06:54:01;;;;;;;9.43;3.17;;;;;;;;;;6040993;23;20959;-65
2023/05/19 06:56:31;;;;;;;3.20;3.00;;;;;;;;;;6040506;23;20689;-65
2023/05/19 06:58:59;;;;;;;8.63;3.50;;;;;;;;;;6041071;23;21013;-65
2023/05/19 07:01:33;;;;;;;10.03;3.70;;;;;;;;;;6037203;23;20624;-65
2023/05/19 07:04:02;;;;;;;4.80;3.03;;;;;;;;;;6038189;23;20971;-65
2023/05/19 07:06:31;;;;;;;4.90;3.27;;;;;;;;;;6038836;23;20635;-65
2023/05/19 07:08:59;;;;;;;5.10;3.73;;;;;;;;;;6040496;23;20725;-65
2023/05/19 07:11:27;;;;;;;7.60;3.70;;;;;;;;;;6038824;23;20683;-66
2023/05/19 07:13:57;;;;;;;6.83;3.43;;;;;;;;;;6038544;23;20656;-66
2023/05/19 07:16:29;;;;;;;11.87;4.33;;;;;;;;;;6056168;23;20834;-66
2023/05/19 07:18:57;;;;;;;7.57;3.40;;;;;;;;;;6056973;23;20573;-66
2023/05/19 07:21:25;;;;;;;5.77;3.93;;;;;;;;;;6052111;23;20616;-66
2023/05/19 07:23:54;;;;;;;6.70;3.63;;;;;;;;;;6059150;23;20580;-66
2023/05/19 07:26:22;;;;;;;14.00;5.17;;;;;;;;;;6052503;23;20586;-66
2023/05/19 07:28:51;;;;;;;8.50;4.13;;;;;;;;;;6038801;23;20618;-66
2023/05/19 07:31:20;;;;;;;10.93;3.93;;;;;;;;;;6039094;23;20680;-66
2023/05/19 07:33:48;;;;;;;9.43;3.90;;;;;;;;;;6040098;23;20638;-66
2023/05/19 07:36:16;;;;;;;6.50;4.00;;;;;;;;;;6041098;23;20704;-66
2023/05/19 07:38:46;;;;;;;4.90;4.50;;;;;;;;;;6041104;23;20613;-66
2023/05/19 07:41:14;;;;;;;7.93;5.40;;;;;;;;;;6040526;23;20952;-66
2023/05/19 07:43:43;;;;;;;12.87;4.47;;;;;;;;;;6040034;23;20639;-65
2023/05/19 07:46:11;;;;;;;7.43;3.83;;;;;;;;;;6041556;23;20643;-65
2023/05/19 07:48:41;;;;;;;7.23;3.97;;;;;;;;;;6040127;23;20635;-66
2023/05/19 07:51:09;;;;;;;4.90;4.60;;;;;;;;;;6038097;23;20954;-65
2023/05/19 07:53:37;;;;;;;6.40;5.13;;;;;;;;;;6038140;23;20631;-66
2023/05/19 07:56:05;;;;;;;4.87;3.57;;;;;;;;;;6037030;23;20819;-66
2023/05/19 07:58:34;;;;;;;4.23;3.83;;;;;;;;;;6036951;23;20680;-67
2023/05/19 08:01:02;;;;;;;5.17;4.10;;;;;;;;;;6035686;23;20684;-66
2023/05/19 08:03:30;;;;;;;4.27;3.97;;;;;;;;;;6038432;23;20664;-66
2023/05/19 08:06:00;;;;;;;5.27;4.00;;;;;;;;;;6036484;23;20653;-66
2023/05/19 08:08:28;;;;;;;4.60;4.20;;;;;;;;;;6037747;23;20663;-66
2023/05/19 08:10:56;;;;;;;5.90;4.23;;;;;;;;;;6037512;23;20643;-66
2023/05/19 08:13:24;;;;;;;4.43;3.50;;;;;;;;;;6037388;23;20631;-66
2023/05/19 08:15:58;;;;;;;5.53;4.50;;;;;;;;;;6035762;23;20723;-66
2023/05/19 08:18:26;;;;;;;5.70;5.10;;;;;;;;;;6036169;23;20625;-66
2023/05/19 08:20:54;;;;;;;6.57;5.00;;;;;;;;;;6036297;23;20667;-66
2023/05/19 08:23:24;;;;;;;5.70;4.03;;;;;;;;;;6038179;23;20668;-67
2023/05/19 08:25:52;;;;;;;4.97;4.20;;;;;;;;;;6037246;23;20646;-66
2023/05/19 08:28:20;;;;;;;5.23;4.30;;;;;;;;;;6036154;23;20668;-64
2023/05/19 08:30:51;;;;;;;4.13;3.73;;;;;;;;;;6037007;23;20893;-65
2023/05/19 08:33:20;;;;;;;7.10;4.50;;;;;;;;;;6041609;23;20604;-66
2023/05/19 08:35:48;;;;;;;5.20;4.73;;;;;;;;;;6046331;23;20667;-66
2023/05/19 08:38:17;;;;;;;5.40;5.00;;;;;;;;;;6049614;23;20605;-67
2023/05/19 08:40:47;;;;;;;7.37;4.37;;;;;;;;;;6051380;23;20597;-65
2023/05/19 08:43:16;;;;;;;6.07;5.47;;;;;;;;;;6062963;23;20556;-65
2023/05/19 08:45:45;;;;;;;10.53;4.80;;;;;;;;;;6061937;23;20569;-65
2023/05/19 08:48:14;;;;;;;5.20;4.73;;;;;;;;;;6063509;23;20607;-65
2023/05/19 08:50:46;;;;;;;7.00;4.37;;;;;;;;;;6063279;23;20561;-65
2023/05/19 08:53:15;;;;;;;9.53;5.03;;;;;;;;;;6064036;23;20560;-65
2023/05/19 08:55:47;;;;;;;4.73;4.30;;;;;;;;;;6061988;23;20653;-65
2023/05/19 08:58:19;;;;;;;6.17;4.40;;;;;;;;;;6057333;23;20546;-66
2023/05/19 09:00:47;;;;;;;6.07;4.80;;;;;;;;;;6045630;23;20613;-66
2023/05/19 09:03:17;;;;;;;7.90;4.77;;;;;;;;;;6048931;23;20613;-65
2023/05/19 09:05:45;;;;;;;6.50;5.20;;;;;;;;;;6048035;23;21004;-66
2023/05/19 09:08:14;;;;;;;8.33;4.30;;;;;;;;;;6052106;23;20599;-65
2023/05/19 09:10:42;;;;;;;6.00;4.47;;;;;;;;;;6048904;23;20664;-66
2023/05/19 09:13:10;;;;;;;6.37;4.60;;;;;;;;;;6059662;23;20942;-65
2023/05/19 09:15:40;;;;;;;7.60;5.30;;;;;;;;;;6061046;23;20613;-65
2023/05/19 09:18:09;;;;;;;7.43;5.47;;;;;;;;;;6064985;23;20573;-66
2023/05/19 09:20:38;;;;;;;9.13;4.97;;;;;;;;;;6064890;23;20624;-65
2023/05/19 09:23:06;;;;;;;6.47;4.70;;;;;;;;;;6064206;23;20572;-65
2023/05/19 09:25:35;;;;;;;5.30;4.80;;;;;;;;;;6064998;23;20790;-65
2023/05/19 09:28:03;;;;;;;5.03;4.53;;;;;;;;;;6064398;23;20584;-65
2023/05/19 09:30:31;;;;;;;8.90;5.90;;;;;;;;;;6064089;23;20576;-65
2023/05/19 09:33:03;;;;;;;7.97;4.90;;;;;;;;;;6063371;23;20585;-65
2023/05/19 09:35:31;;;;;;;6.07;4.80;;;;;;;;;;6049402;23;20570;-65
2023/05/19 09:38:01;;;;;;;5.67;5.17;;;;;;;;;;6053969;23;20560;-65
2023/05/19 09:40:29;;;;;;;5.73;4.77;;;;;;;;;;6054195;23;20581;-65
2023/05/19 09:42:57;;;;;;;6.60;4.90;;;;;;;;;;6053280;23;20707;-65
2023/05/19 09:45:27;;;;;;;6.50;4.90;;;;;;;;;;6052643;23;20613;-65
2023/05/19 09:47:55;;;;;;;5.40;5.00;;;;;;;;;;6051010;23;20579;-65
2023/05/19 09:50:28;;;;;;;7.33;5.00;;;;;;;;;;6052628;23;20609;-65
2023/05/19 09:52:57;;;;;;;5.23;4.83;;;;;;;;;;6048665;23;20572;-65
2023/05/19 09:55:26;;;;;;;5.20;4.70;;;;;;;;;;6047252;23;20620;-65
2023/05/19 09:57:55;;;;;;;6.87;4.60;;;;;;;;;;6048343;23;20648;-66
2023/05/19 10:00:24;;;;;;;5.53;4.70;;;;;;;;;;6049378;23;20615;-66
2023/05/19 10:02:53;;;;;;;4.60;4.20;;;;;;;;;;6046313;23;20612;-66
2023/05/19 10:05:21;;;;;;;8.07;4.80;;;;;;;;;;6048308;23;20593;-66
2023/05/19 10:07:51;;;;;;;5.93;4.80;;;;;;;;;;6046972;23;20608;-66
2023/05/19 10:10:19;;;;;;;6.33;4.90;;;;;;;;;;6048576;23;20637;-65
2023/05/19 10:12:48;;;;;;;6.47;4.60;;;;;;;;;;6048454;23;20605;-65
2023/05/19 10:15:17;;;;;;;5.00;4.70;;;;;;;;;;6047618;23;21144;-65
2023/05/19 10:17:45;;;;;;;9.40;5.50;;;;;;;;;;6046081;23;21075;-65
2023/05/19 10:20:14;;;;;;;5.90;5.33;;;;;;;;;;6048092;23;20633;-65
2023/05/19 10:22:43;;;;;;;6.83;5.70;;;;;;;;;;6047166;23;20593;-67
2023/05/19 10:25:13;;;;;;;4.87;4.50;;;;;;;;;;6048570;23;20593;-66
2023/05/19 10:27:44;;;;;;;7.53;6.67;;;;;;;;;;6049269;23;20953;-65
2023/05/19 10:30:14;;;;;;;5.37;4.93;;;;;;;;;;6048671;23;20578;-65
2023/05/19 10:32:44;;;;;;;5.50;4.93;;;;;;;;;;6048983;23;20588;-65
2023/05/19 10:35:31;;;;;;;5.60;5.10;;;;;;;;;;6047118;23;20630;-66
2023/05/19 10:38:02;;;;;;;6.43;5.10;;;;;;;;;;6047490;23;20629;-66
2023/05/19 10:40:34;;;;;;;6.47;5.00;;;;;;;;;;6049001;23;20574;-66
2023/05/19 10:43:15;;;;;;;5.40;4.90;;;;;;;;;;6046843;23;20577;-65
2023/05/19 10:45:48;;;;;;;5.87;5.13;;;;;;;;;;6048478;23;20600;-66
2023/05/19 10:48:16;;;;;;;5.33;4.87;;;;;;;;;;6047434;23;20577;-66
2023/05/19 10:50:45;;;;;;;7.10;5.40;;;;;;;;;;6047998;23;20616;-66
2023/05/19 10:53:20;;;;;;;8.13;5.67;;;;;;;;;;6046939;23;20597;-66
2023/05/19 10:55:54;;;;;;;7.87;4.93;;;;;;;;;;6047373;23;20565;-66
2023/05/19 10:58:50;;;;;;;4.90;4.47;;;;;;;;;;6047509;23;21028;-66
2023/05/19 11:01:20;;;;;;;6.03;5.40;;;;;;;;;;6045886;23;20569;-66
2023/05/19 11:03:50;;;;;;;5.47;5.10;;;;;;;;;;6044633;23;20612;-66
2023/05/19 11:06:25;;;;;;;8.10;4.97;;;;;;;;;;6043873;23;20577;-64
2023/05/19 11:08:54;;;;;;;7.47;5.40;;;;;;;;;;6045759;23;20588;-65
2023/05/19 11:11:24;;;;;;;5.07;4.67;;;;;;;;;;6045419;23;20608;-65
2023/05/19 11:13:52;;;;;;;5.37;4.77;;;;;;;;;;6045356;23;20971;-65
2023/05/19 11:16:21;;;;;;;5.43;4.97;;;;;;;;;;6044678;23;20617;-64
2023/05/19 11:18:50;;;;;;;6.90;5.17;;;;;;;;;;6044255;23;20577;-65
2023/05/19 11:21:20;;;;;;;7.20;5.03;;;;;;;;;;6042964;23;20658;-65
2023/05/19 11:23:48;;;;;;;5.20;4.70;;;;;;;;;;6043195;23;20576;-65
2023/05/19 11:26:16;;;;;;;5.37;4.90;;;;;;;;;;6044005;23;20616;-65
2023/05/19 11:28:48;;;;;;;5.53;5.03;;;;;;;;;;6044278;23;20612;-65
2023/05/19 11:31:21;;;;;;;5.60;5.10;;;;;;;;;;6044389;23;20549;-66
2023/05/19 11:33:50;;;;;;;5.93;5.00;;;;;;;;;;6019705;23;20581;-66
2023/05/19 11:36:20;;;;;;;6.50;5.00;;;;;;;;;;6043976;23;20581;-66
2023/05/19 11:38:49;;;;;;;7.53;5.60;;;;;;;;;;6045077;23;20678;-66
2023/05/19 11:41:18;;;;;;;5.77;5.33;;;;;;;;;;6046335;23;20601;-66
2023/05/19 11:43:49;;;;;;;5.20;4.80;;;;;;;;;;6043833;23;20601;-66
2023/05/19 11:46:18;;;;;;;5.67;5.20;;;;;;;;;;6044653;23;20557;-66
2023/05/19 11:48:49;;;;;;;4.90;4.60;;;;;;;;;;6044472;23;20641;-66
2023/05/19 11:51:18;;;;;;;5.80;5.50;;;;;;;;;;6042537;23;21193;-66
2023/05/19 11:53:49;;;;;;;5.30;4.90;;;;;;;;;;6044877;23;20985;-66
2023/05/19 11:56:18;;;;;;;4.63;4.43;;;;;;;;;;6044840;23;21066;-66
2023/05/19 11:58:46;;;;;;;5.97;5.33;;;;;;;;;;6046745;23;20625;-65
2023/05/19 12:01:18;;;;;;;5.93;5.00;;;;;;;;;;6044235;23;20565;-66
2023/05/19 12:03:48;;;;;;;10.77;5.60;;;;;;;;;;6043315;23;20553;-66
2023/05/19 12:06:17;;;;;;;5.67;5.23;;;;;;;;;;6043480;23;20593;-66
2023/05/19 12:08:46;;;;;;;5.23;4.90;;;;;;;;;;6043865;23;20613;-65
2023/05/19 12:11:15;;;;;;;5.40;5.00;;;;;;;;;;6042906;23;20676;-64
2023/05/19 12:13:43;;;;;;;8.50;5.87;;;;;;;;;;6044659;23;20624;-65
2023/05/19 12:16:12;;;;;;;5.03;4.73;;;;;;;;;;6042345;23;20605;-65
2023/05/19 12:18:42;;;;;;;5.13;4.73;;;;;;;;;;6044309;23;21193;-65
2023/05/19 12:21:10;;;;;;;5.93;5.23;;;;;;;;;;6043681;23;20998;-65
2023/05/19 12:23:40;;;;;;;5.40;5.10;;;;;;;;;;6046262;23;20617;-65
2023/05/19 12:26:09;;;;;;;5.73;5.40;;;;;;;;;;6044014;23;20616;-65
2023/05/19 12:28:37;;;;;;;6.43;5.10;;;;;;;;;;6045439;23;20958;-65
2023/05/19 12:31:06;;;;;;;4.80;4.50;;;;;;;;;;6043137;23;20892;-66
2023/05/19 12:33:34;;;;;;;6.67;6.00;;;;;;;;;;6045661;23;20677;-65
2023/05/19 12:36:06;;;;;;;5.30;5.00;;;;;;;;;;6043522;23;20584;-65
2023/05/19 12:38:36;;;;;;;5.83;5.50;;;;;;;;;;6048642;23;20613;-66
2023/05/19 12:41:05;;;;;;;13.17;5.50;;;;;;;;;;6048449;23;20597;-66
2023/05/19 12:43:33;;;;;;;5.70;5.17;;;;;;;;;;6048123;23;20615;-66
2023/05/19 12:46:10;;;;;;;5.50;5.03;;;;;;;;;;6046286;23;20577;-66
2023/05/19 12:48:41;;;;;;;5.57;5.30;;;;;;;;;;6045769;23;20569;-66
2023/05/19 12:51:11;;;;;;;5.43;5.03;;;;;;;;;;6046153;23;20942;-66
2023/05/19 12:53:40;;;;;;;7.53;5.43;;;;;;;;;;6046016;23;20581;-66
2023/05/19 12:56:13;;;;;;;5.83;5.20;;;;;;;;;;6045340;23;20907;-66
2023/05/19 12:58:41;;;;;;;5.90;5.37;;;;;;;;;;6045560;23;21241;-66
2023/05/19 13:01:16;;;;;;;5.97;5.47;;;;;;;;;;6046787;23;20610;-66
2023/05/19 13:03:44;;;;;;;5.10;4.80;;;;;;;;;;6042205;23;20614;-66
2023/05/19 13:06:14;;;;;;;6.30;5.37;;;;;;;;;;6046075;23;20664;-66
2023/05/19 13:08:42;;;;;;;7.10;5.80;;;;;;;;;;6045226;23;20581;-66
2023/05/19 13:11:11;;;;;;;9.33;5.70;;;;;;;;;;6045846;23;20633;-66
2023/05/19 13:13:39;;;;;;;6.27;5.73;;;;;;;;;;6046558;23;20616;-66
2023/05/19 13:16:08;;;;;;;5.90;5.50;;;;;;;;;;6048266;23;20605;-66
2023/05/19 13:18:37;;;;;;;8.73;5.23;;;;;;;;;;6044592;23;20700;-65
2023/05/19 13:21:06;;;;;;;11.73;5.77;;;;;;;;;;6047151;23;20651;-65
2023/05/19 13:23:36;;;;;;;5.87;5.30;;;;;;;;;;6047991;23;20662;-66
2023/05/19 13:26:05;;;;;;;7.10;5.90;;;;;;;;;;6047044;23;20922;-65
2023/05/19 13:28:34;;;;;;;6.40;5.33;;;;;;;;;;6047621;23;20616;-65
2023/05/19 13:31:02;;;;;;;6.30;5.80;;;;;;;;;;6048743;23;21159;-65
2023/05/19 13:33:31;;;;;;;5.67;5.17;;;;;;;;;;6045156;23;20995;-66
2023/05/19 13:35:59;;;;;;;6.90;5.20;;;;;;;;;;6047273;23;20608;-66
2023/05/19 13:38:29;;;;;;;7.57;5.20;;;;;;;;;;6045151;23;20683;-66
2023/05/19 13:40:59;;;;;;;6.00;5.60;;;;;;;;;;6042128;23;20670;-66
2023/05/19 13:43:27;;;;;;;5.93;5.37;;;;;;;;;;6045205;23;20625;-66
2023/05/19 13:45:55;;;;;;;10.00;5.43;;;;;;;;;;6043785;23;20619;-67
2023/05/19 13:48:24;;;;;;;5.50;5.10;;;;;;;;;;6044925;23;20601;-66
2023/05/19 13:51:11;;;;;;;5.73;5.43;;;;;;;;;;6044242;23;21184;-66
2023/05/19 13:53:40;;;;;;;7.83;5.27;;;;;;;;;;6045463;23;20605;-66
2023/05/19 13:56:09;;;;;;;6.47;5.43;;;;;;;;;;6045573;23;20584;-66
2023/05/19 13:58:39;;;;;;;7.00;5.80;;;;;;;;;;6045457;23;20601;-66
2023/05/19 14:01:08;;;;;;;6.23;5.63;;;;;;;;;;6043809;23;20588;-65
2023/05/19 14:03:36;;;;;;;5.07;4.77;;;;;;;;;;6043500;23;20840;-66
2023/05/19 14:06:05;;;;;;;5.00;4.70;;;;;;;;;;6044149;23;20644;-66
2023/05/19 14:08:33;;;;;;;6.20;5.60;;;;;;;;;;6043337;23;20611;-65
2023/05/19 14:11:04;;;;;;;5.03;4.73;;;;;;;;;;6041792;23;20765;-65
2023/05/19 14:13:34;;;;;;;5.43;4.87;;;;;;;;;;6043408;23;20919;-65
2023/05/19 14:16:02;;;;;;;5.53;5.10;;;;;;;;;;6042941;23;20613;-66
2023/05/19 14:18:31;;;;;;;6.80;5.50;;;;;;;;;;6042254;23;20696;-65
2023/05/19 14:21:00;;;;;;;5.73;5.17;;;;;;;;;;6044311;23;20655;-66
2023/05/19 14:23:29;;;;;;;5.57;5.17;;;;;;;;;;6043053;23;20664;-65
2023/05/19 14:25:57;;;;;;;5.90;5.40;;;;;;;;;;6044655;23;20585;-65
2023/05/19 14:28:26;;;;;;;6.33;5.73;;;;;;;;;;6043109;23;21181;-66
2023/05/19 14:30:56;;;;;;;6.30;5.70;;;;;;;;;;6044290;23;20583;-66
2023/05/19 14:33:24;;;;;;;7.70;5.40;;;;;;;;;;6044684;23;20620;-66
2023/05/19 14:35:54;;;;;;;6.53;5.70;;;;;;;;;;6045885;23;20626;-66
2023/05/19 14:38:22;;;;;;;7.70;6.03;;;;;;;;;;6044897;23;21225;-65
2023/05/19 14:40:50;;;;;;;8.47;6.13;;;;;;;;;;6045819;23;20609;-65
2023/05/19 14:43:18;;;;;;;6.53;6.10;;;;;;;;;;6046228;23;20605;-66
2023/05/19 14:45:47;;;;;;;6.07;5.43;;;;;;;;;;6045412;23;20640;-66
2023/05/19 14:48:16;;;;;;;6.53;5.83;;;;;;;;;;6047143;23;20621;-66
2023/05/19 14:50:45;;;;;;;6.57;6.00;;;;;;;;;;6047992;23;20600;-66
2023/05/19 14:53:13;;;;;;;5.40;5.10;;;;;;;;;;6044872;23;20985;-66
2023/05/19 14:55:41;;;;;;;5.50;5.10;;;;;;;;;;6047220;23;20581;-66
2023/05/19 14:58:10;;;;;;;5.87;5.53;;;;;;;;;;6045607;23;20644;-66